sensor_id;sensor_type;location;lat;lon;timestamp;pressure;altitude;pressure_sealevel;temperature;humidity
11712;BME280;5912;51.034;6.984;2022-12-18T00:01:00;101371.31;;;-6.33;86.45
11712;BME280;5912;51.034;6.984;2022-12-18T00:03:53;101372.78;;;-6.29;85.56
11712;BME280;5912;51.034;6.984;2022-12-18T00:06:55;101370.72;;;-6.38;86.23
11712;BME280;5912;51.034;6.984;2022-12-18T00:13:06;101365.16;;;-6.46;86.38
11712;BME280;5912;51.034;6.984;2022-12-18T00:16:00;101370.13;;;-6.43;87.19
11712;BME280;5912;51.034;6.984;2022-12-18T00:18:57;101377.56;;;-6.39;86.76
11712;BME280;5912;51.034;6.984;2022-12-18T00:25:30;101384.91;;;-6.33;85.83
11712;BME280;5912;51.034;6.984;2022-12-18T00:28:11;101378.09;;;-6.49;86.32
11712;BME280;5912;51.034;6.984;2022-12-18T00:30:44;101386.59;;;-6.49;86.77
11712;BME280;5912;51.034;6.984;2022-12-18T00:33:15;101386.75;;;-6.52;86.33
11712;BME280;5912;51.034;6.984;2022-12-18T00:36:20;101375.91;;;-6.57;86.73
11712;BME280;5912;51.034;6.984;2022-12-18T00:39:07;101386.06;;;-6.55;87.42
11712;BME280;5912;51.034;6.984;2022-12-18T00:41:42;101384.38;;;-6.39;86.22
11712;BME280;5912;51.034;6.984;2022-12-18T00:44:39;101382.59;;;-6.37;86.28
11712;BME280;5912;51.034;6.984;2022-12-18T00:47:23;101376.50;;;-6.35;85.81
11712;BME280;5912;51.034;6.984;2022-12-18T00:50:26;101368.16;;;-6.38;86.31
11712;BME280;5912;51.034;6.984;2022-12-18T00:53:12;101368.00;;;-6.35;85.57
11712;BME280;5912;51.034;6.984;2022-12-18T00:55:59;101363.78;;;-6.36;85.59
11712;BME280;5912;51.034;6.984;2022-12-18T00:58:33;101359.50;;;-6.36;85.88
11712;BME280;5912;51.034;6.984;2022-12-18T01:01:09;101368.84;;;-6.35;85.42
11712;BME280;5912;51.034;6.984;2022-12-18T01:03:37;101369.56;;;-6.33;86.10
11712;BME280;5912;51.034;6.984;2022-12-18T01:06:08;101373.28;;;-6.38;85.68
11712;BME280;5912;51.034;6.984;2022-12-18T01:08:47;101365.69;;;-6.40;86.15
11712;BME280;5912;51.034;6.984;2022-12-18T01:11:28;101365.53;;;-6.37;85.70
11712;BME280;5912;51.034;6.984;2022-12-18T01:13:59;101357.00;;;-6.37;86.12
11712;BME280;5912;51.034;6.984;2022-12-18T01:16:33;101346.03;;;-6.39;85.59
11712;BME280;5912;51.034;6.984;2022-12-18T01:19:13;101349.03;;;-6.31;85.36
11712;BME280;5912;51.034;6.984;2022-12-18T01:22:11;101365.72;;;-6.24;84.58
11712;BME280;5912;51.034;6.984;2022-12-18T01:31:34;101377.06;;;-6.30;84.44
11712;BME280;5912;51.034;6.984;2022-12-18T01:34:14;101370.63;;;-6.37;84.63
11712;BME280;5912;51.034;6.984;2022-12-18T01:36:40;101366.81;;;-6.45;85.26
11712;BME280;5912;51.034;6.984;2022-12-18T01:40:01;101362.84;;;-6.51;85.71
11712;BME280;5912;51.034;6.984;2022-12-18T01:45:45;101373.22;;;-6.21;84.71
11712;BME280;5912;51.034;6.984;2022-12-18T01:48:52;101375.31;;;-6.12;84.31
11712;BME280;5912;51.034;6.984;2022-12-18T01:51:36;101365.00;;;-6.11;84.18
11712;BME280;5912;51.034;6.984;2022-12-18T01:54:08;101364.19;;;-6.11;84.03
11712;BME280;5912;51.034;6.984;2022-12-18T01:56:38;101359.44;;;-6.19;84.06
11712;BME280;5912;51.034;6.984;2022-12-18T01:59:15;101362.09;;;-6.20;84.23
11712;BME280;5912;51.034;6.984;2022-12-18T02:01:45;101356.81;;;-6.17;84.08
11712;BME280;5912;51.034;6.984;2022-12-18T02:07:00;101368.22;;;-6.07;84.11
11712;BME280;5912;51.034;6.984;2022-12-18T02:19:10;101321.06;;;-6.34;83.50
11712;BME280;5912;51.034;6.984;2022-12-18T02:27:49;101369.72;;;-6.03;82.88
11712;BME280;5912;51.034;6.984;2022-12-18T02:30:23;101371.63;;;-6.06;82.94
11712;BME280;5912;51.034;6.984;2022-12-18T02:33:02;101373.66;;;-6.13;83.24
11712;BME280;5912;51.034;6.984;2022-12-18T02:35:54;101369.75;;;-6.20;83.51
11712;BME280;5912;51.034;6.984;2022-12-18T02:39:02;101361.66;;;-6.28;84.15
11712;BME280;5912;51.034;6.984;2022-12-18T02:44:46;101354.13;;;-6.31;83.72
11712;BME280;5912;51.034;6.984;2022-12-18T02:47:48;101342.28;;;-6.32;84.60
11712;BME280;5912;51.034;6.984;2022-12-18T02:57:57;101360.06;;;-6.46;83.61
11712;BME280;5912;51.034;6.984;2022-12-18T03:00:35;101352.63;;;-6.51;84.58
11712;BME280;5912;51.034;6.984;2022-12-18T03:03:11;101349.38;;;-6.54;84.56
11712;BME280;5912;51.034;6.984;2022-12-18T03:06:00;101345.31;;;-6.58;84.13
11712;BME280;5912;51.034;6.984;2022-12-18T03:08:32;101319.19;;;-6.80;84.91
11712;BME280;5912;51.034;6.984;2022-12-18T03:11:13;101341.50;;;-6.67;84.61
11712;BME280;5912;51.034;6.984;2022-12-18T03:13:58;101335.88;;;-6.73;85.34
11712;BME280;5912;51.034;6.984;2022-12-18T03:16:44;101338.66;;;-6.78;85.25
11712;BME280;5912;51.034;6.984;2022-12-18T03:19:40;101341.31;;;-6.79;85.78
11712;BME280;5912;51.034;6.984;2022-12-18T03:22:14;101334.69;;;-6.83;85.44
11712;BME280;5912;51.034;6.984;2022-12-18T03:24:51;101266.78;;;-7.21;85.49
11712;BME280;5912;51.034;6.984;2022-12-18T03:27:51;101329.19;;;-6.93;85.53
11712;BME280;5912;51.034;6.984;2022-12-18T03:30:33;101326.56;;;-6.91;85.25
11712;BME280;5912;51.034;6.984;2022-12-18T03:36:48;101317.50;;;-6.97;85.75
11712;BME280;5912;51.034;6.984;2022-12-18T03:39:47;101314.34;;;-7.02;85.76
11712;BME280;5912;51.034;6.984;2022-12-18T03:42:45;101319.44;;;-7.02;85.64
11712;BME280;5912;51.034;6.984;2022-12-18T03:59:38;101307.94;;;-7.27;86.24
11712;BME280;5912;51.034;6.984;2022-12-18T04:03:02;101310.78;;;-7.33;86.34
11712;BME280;5912;51.034;6.984;2022-12-18T04:09:38;101305.22;;;-7.41;86.85
11712;BME280;5912;51.034;6.984;2022-12-18T04:23:13;101299.66;;;-7.32;87.24
11712;BME280;5912;51.034;6.984;2022-12-18T04:26:19;101304.00;;;-7.34;86.94
11712;BME280;5912;51.034;6.984;2022-12-18T04:32:07;101305.00;;;-7.37;87.38
11712;BME280;5912;51.034;6.984;2022-12-18T04:34:56;101308.38;;;-7.36;87.69
11712;BME280;5912;51.034;6.984;2022-12-18T04:41:22;101276.84;;;-7.52;87.44
11712;BME280;5912;51.034;6.984;2022-12-18T04:44:28;101304.69;;;-7.31;87.56
11712;BME280;5912;51.034;6.984;2022-12-18T04:47:42;101304.00;;;-7.34;87.45
11712;BME280;5912;51.034;6.984;2022-12-18T04:51:02;101304.63;;;-7.29;87.34
11712;BME280;5912;51.034;6.984;2022-12-18T04:53:48;101306.34;;;-7.30;87.24
11712;BME280;5912;51.034;6.984;2022-12-18T04:59:32;101303.13;;;-7.33;87.08
11712;BME280;5912;51.034;6.984;2022-12-18T05:02:33;101303.13;;;-7.33;87.56
11712;BME280;5912;51.034;6.984;2022-12-18T05:09:32;101292.31;;;-7.38;86.78
11712;BME280;5912;51.034;6.984;2022-12-18T05:13:01;101290.78;;;-7.42;87.28
11712;BME280;5912;51.034;6.984;2022-12-18T05:15:35;101292.38;;;-7.40;87.41
11712;BME280;5912;51.034;6.984;2022-12-18T05:22:05;101284.28;;;-7.48;87.38
11712;BME280;5912;51.034;6.984;2022-12-18T05:46:21;101307.88;;;-7.62;87.42
11712;BME280;5912;51.034;6.984;2022-12-18T06:04:20;101329.00;;;-7.77;88.27
11712;BME280;5912;51.034;6.984;2022-12-18T06:11:06;101335.06;;;-7.60;88.85
11712;BME280;5912;51.034;6.984;2022-12-18T06:14:05;101336.56;;;-7.56;88.81
11712;BME280;5912;51.034;6.984;2022-12-18T06:25:23;101365.44;;;-7.37;88.37
11712;BME280;5912;51.034;6.984;2022-12-18T06:28:10;101362.72;;;-7.34;88.43
11712;BME280;5912;51.034;6.984;2022-12-18T06:31:43;101357.47;;;-7.31;88.01
11712;BME280;5912;51.034;6.984;2022-12-18T06:37:42;101308.81;;;-7.45;87.17
11712;BME280;5912;51.034;6.984;2022-12-18T06:43:50;101346.53;;;-7.16;86.28
11712;BME280;5912;51.034;6.984;2022-12-18T06:46:42;101343.22;;;-7.18;86.62
11712;BME280;5912;51.034;6.984;2022-12-18T06:49:33;101343.75;;;-7.29;86.78
11712;BME280;5912;51.034;6.984;2022-12-18T06:59:31;101341.09;;;-7.44;87.11
11712;BME280;5912;51.034;6.984;2022-12-18T07:05:09;101335.38;;;-7.49;87.04
11712;BME280;5912;51.034;6.984;2022-12-18T07:08:46;101331.03;;;-7.47;87.10
11712;BME280;5912;51.034;6.984;2022-12-18T07:11:40;101333.53;;;-7.46;86.82
11712;BME280;5912;51.034;6.984;2022-12-18T07:14:20;101317.44;;;-7.48;86.74
11712;BME280;5912;51.034;6.984;2022-12-18T07:17:03;101330.06;;;-7.45;87.38
11712;BME280;5912;51.034;6.984;2022-12-18T07:19:29;101331.94;;;-7.48;86.75
11712;BME280;5912;51.034;6.984;2022-12-18T07:22:18;101325.31;;;-7.52;87.08
11712;BME280;5912;51.034;6.984;2022-12-18T07:24:53;101325.41;;;-7.54;86.80
11712;BME280;5912;51.034;6.984;2022-12-18T07:27:35;101322.00;;;-7.54;87.28
11712;BME280;5912;51.034;6.984;2022-12-18T07:30:16;101323.88;;;-7.58;87.29
11712;BME280;5912;51.034;6.984;2022-12-18T07:32:54;101327.13;;;-7.54;87.08
11712;BME280;5912;51.034;6.984;2022-12-18T07:35:32;101315.25;;;-7.55;87.36
11712;BME280;5912;51.034;6.984;2022-12-18T07:38:09;101322.22;;;-7.59;87.47
11712;BME280;5912;51.034;6.984;2022-12-18T07:40:40;101330.69;;;-7.58;87.28
11712;BME280;5912;51.034;6.984;2022-12-18T07:43:16;101325.66;;;-7.60;87.48
11712;BME280;5912;51.034;6.984;2022-12-18T07:45:48;101321.63;;;-7.64;87.44
11712;BME280;5912;51.034;6.984;2022-12-18T07:48:33;101311.19;;;-7.59;87.32
11712;BME280;5912;51.034;6.984;2022-12-18T07:51:05;101312.84;;;-7.58;87.62
11712;BME280;5912;51.034;6.984;2022-12-18T07:53:35;101313.66;;;-7.58;87.48
11712;BME280;5912;51.034;6.984;2022-12-18T07:56:07;101318.00;;;-7.60;87.58
11712;BME280;5912;51.034;6.984;2022-12-18T07:58:48;101319.84;;;-7.62;87.37
11712;BME280;5912;51.034;6.984;2022-12-18T08:01:19;101323.03;;;-7.58;87.42
11712;BME280;5912;51.034;6.984;2022-12-18T08:03:45;101321.41;;;-7.59;87.46
11712;BME280;5912;51.034;6.984;2022-12-18T08:06:24;101315.19;;;-7.54;87.63
11712;BME280;5912;51.034;6.984;2022-12-18T08:08:59;101305.66;;;-7.50;87.65
11712;BME280;5912;51.034;6.984;2022-12-18T08:14:55;101281.88;;;-7.34;87.26
11712;BME280;5912;51.034;6.984;2022-12-18T08:17:25;101291.56;;;-7.23;87.28
11712;BME280;5912;51.034;6.984;2022-12-18T08:19:57;101291.19;;;-7.16;86.83
11712;BME280;5912;51.034;6.984;2022-12-18T08:22:53;101288.09;;;-7.05;86.63
11712;BME280;5912;51.034;6.984;2022-12-18T08:25:31;101272.72;;;-7.04;86.33
11712;BME280;5912;51.034;6.984;2022-12-18T08:28:29;101271.59;;;-6.98;85.81
11712;BME280;5912;51.034;6.984;2022-12-18T08:31:12;101269.53;;;-6.92;86.29
11712;BME280;5912;51.034;6.984;2022-12-18T08:33:51;101258.94;;;-6.84;85.81
11712;BME280;5912;51.034;6.984;2022-12-18T08:36:25;101246.59;;;-6.76;85.71
11712;BME280;5912;51.034;6.984;2022-12-18T08:38:54;101219.25;;;-6.91;85.77
11712;BME280;5912;51.034;6.984;2022-12-18T08:41:44;101248.84;;;-6.70;85.86
11712;BME280;5912;51.034;6.984;2022-12-18T08:44:42;101255.13;;;-6.60;85.58
11712;BME280;5912;51.034;6.984;2022-12-18T08:47:14;101238.78;;;-6.58;85.63
11712;BME280;5912;51.034;6.984;2022-12-18T08:49:59;101263.50;;;-6.41;85.10
11712;BME280;5912;51.034;6.984;2022-12-18T08:52:27;101266.38;;;-6.32;85.49
11712;BME280;5912;51.034;6.984;2022-12-18T08:55:04;101260.88;;;-6.24;85.34
11712;BME280;5912;51.034;6.984;2022-12-18T08:57:34;101249.38;;;-6.17;84.72
11712;BME280;5912;51.034;6.984;2022-12-18T09:00:19;101254.44;;;-6.00;85.27
11712;BME280;5912;51.034;6.984;2022-12-18T09:02:50;101252.88;;;-5.87;84.52
11712;BME280;5912;51.034;6.984;2022-12-18T09:05:17;101244.09;;;-5.83;83.91
11712;BME280;5912;51.034;6.984;2022-12-18T09:07:48;101260.97;;;-5.65;83.73
11712;BME280;5912;51.034;6.984;2022-12-18T09:10:19;101260.34;;;-5.54;83.22
11712;BME280;5912;51.034;6.984;2022-12-18T09:12:57;101252.91;;;-5.43;82.37
11712;BME280;5912;51.034;6.984;2022-12-18T09:15:27;101249.88;;;-5.36;82.19
11712;BME280;5912;51.034;6.984;2022-12-18T09:18:01;101240.03;;;-5.28;82.26
11712;BME280;5912;51.034;6.984;2022-12-18T09:20:55;101243.72;;;-5.18;81.42
11712;BME280;5912;51.034;6.984;2022-12-18T09:23:24;101246.00;;;-5.13;81.41
11712;BME280;5912;51.034;6.984;2022-12-18T09:25:58;101246.66;;;-5.10;81.40
11712;BME280;5912;51.034;6.984;2022-12-18T09:28:36;101189.91;;;-5.32;81.66
11712;BME280;5912;51.034;6.984;2022-12-18T09:31:13;101231.41;;;-4.97;80.83
11712;BME280;5912;51.034;6.984;2022-12-18T09:33:40;101247.91;;;-4.87;80.31
11712;BME280;5912;51.034;6.984;2022-12-18T09:36:15;101218.69;;;-4.85;81.12
11712;BME280;5912;51.034;6.984;2022-12-18T09:38:58;101230.22;;;-4.64;80.87
11712;BME280;5912;51.034;6.984;2022-12-18T09:44:36;101224.25;;;-4.36;79.22
11712;BME280;5912;51.034;6.984;2022-12-18T09:47:17;101221.13;;;-4.27;78.19
11712;BME280;5912;51.034;6.984;2022-12-18T09:50:05;101209.19;;;-4.14;77.88
11712;BME280;5912;51.034;6.984;2022-12-18T09:53:10;101207.28;;;-3.98;77.06
11712;BME280;5912;51.034;6.984;2022-12-18T09:55:47;101209.06;;;-3.86;77.10
11712;BME280;5912;51.034;6.984;2022-12-18T10:01:32;101193.41;;;-3.69;75.60
11712;BME280;5912;51.034;6.984;2022-12-18T10:04:39;101209.78;;;-3.45;74.58
11712;BME280;5912;51.034;6.984;2022-12-18T10:11:58;101190.72;;;-3.28;72.59
11712;BME280;5912;51.034;6.984;2022-12-18T10:26:05;101167.00;;;-2.58;67.20
11712;BME280;5912;51.034;6.984;2022-12-18T10:28:36;101164.56;;;-2.36;67.48
11712;BME280;5912;51.034;6.984;2022-12-18T10:31:30;101163.38;;;-2.19;65.46
11712;BME280;5912;51.034;6.984;2022-12-18T10:34:07;101160.16;;;-2.10;65.83
11712;BME280;5912;51.034;6.984;2022-12-18T10:36:56;101168.72;;;-1.99;63.77
11712;BME280;5912;51.034;6.984;2022-12-18T10:40:42;101178.78;;;-1.83;63.66
11712;BME280;5912;51.034;6.984;2022-12-18T10:42:43;101171.19;;;-1.74;63.61
11712;BME280;5912;51.034;6.984;2022-12-18T10:45:17;101155.53;;;-1.71;63.88
11712;BME280;5912;51.034;6.984;2022-12-18T10:51:47;101167.00;;;-1.64;60.98
11712;BME280;5912;51.034;6.984;2022-12-18T10:54:24;101162.38;;;-1.48;60.86
11712;BME280;5912;51.034;6.984;2022-12-18T10:57:39;101155.94;;;-1.42;61.31
11712;BME280;5912;51.034;6.984;2022-12-18T11:00:30;101157.66;;;-1.54;60.74
11712;BME280;5912;51.034;6.984;2022-12-18T11:03:33;101151.34;;;-1.50;61.25
11712;BME280;5912;51.034;6.984;2022-12-18T11:08:38;101145.78;;;-1.32;60.38
11712;BME280;5912;51.034;6.984;2022-12-18T11:11:47;101146.00;;;-1.24;60.40
11712;BME280;5912;51.034;6.984;2022-12-18T11:14:54;101137.19;;;-1.33;58.86
11712;BME280;5912;51.034;6.984;2022-12-18T11:17:34;101130.06;;;-1.40;58.15
11712;BME280;5912;51.034;6.984;2022-12-18T11:20:07;101142.72;;;-1.37;58.91
11712;BME280;5912;51.034;6.984;2022-12-18T11:23:21;101133.59;;;-1.30;59.97
11712;BME280;5912;51.034;6.984;2022-12-18T11:26:02;101134.16;;;-1.27;58.44
11712;BME280;5912;51.034;6.984;2022-12-18T11:28:50;101131.34;;;-1.35;58.30
11712;BME280;5912;51.034;6.984;2022-12-18T11:31:31;101093.34;;;-1.55;58.62
11712;BME280;5912;51.034;6.984;2022-12-18T11:34:33;101121.63;;;-1.31;58.40
11712;BME280;5912;51.034;6.984;2022-12-18T11:37:15;101120.78;;;-1.32;59.60
11712;BME280;5912;51.034;6.984;2022-12-18T11:43:16;101107.09;;;-1.43;58.54
11712;BME280;5912;51.034;6.984;2022-12-18T11:46:02;101093.59;;;-1.47;60.22
11712;BME280;5912;51.034;6.984;2022-12-18T11:54:30;101092.75;;;-1.59;59.69
11712;BME280;5912;51.034;6.984;2022-12-18T11:57:31;101085.59;;;-1.66;59.63
11712;BME280;5912;51.034;6.984;2022-12-18T12:00:13;101074.69;;;-1.70;59.85
11712;BME280;5912;51.034;6.984;2022-12-18T12:06:06;101081.94;;;-1.75;61.11
11712;BME280;5912;51.034;6.984;2022-12-18T12:25:14;101098.66;;;-1.91;61.39
11712;BME280;5912;51.034;6.984;2022-12-18T12:39:57;101037.44;;;-2.22;62.64
11712;BME280;5912;51.034;6.984;2022-12-18T12:43:01;101076.13;;;-2.00;62.22
11712;BME280;5912;51.034;6.984;2022-12-18T12:46:18;101073.66;;;-2.02;62.50
11712;BME280;5912;51.034;6.984;2022-12-18T12:49:25;101054.31;;;-2.18;62.82
11712;BME280;5912;51.034;6.984;2022-12-18T12:52:28;101050.69;;;-2.16;62.92
11712;BME280;5912;51.034;6.984;2022-12-18T12:55:01;101054.44;;;-2.20;62.73
11712;BME280;5912;51.034;6.984;2022-12-18T12:57:51;101021.13;;;-2.34;62.73
11712;BME280;5912;51.034;6.984;2022-12-18T13:00:36;101050.09;;;-2.19;63.42
11712;BME280;5912;51.034;6.984;2022-12-18T13:10:40;101066.59;;;-2.22;63.48
11712;BME280;5912;51.034;6.984;2022-12-18T13:13:52;101060.72;;;-2.24;63.23
11712;BME280;5912;51.034;6.984;2022-12-18T13:16:30;101061.59;;;-2.12;62.76
11712;BME280;5912;51.034;6.984;2022-12-18T13:18:57;101053.16;;;-2.14;62.30
11712;BME280;5912;51.034;6.984;2022-12-18T13:21:30;101057.84;;;-2.08;62.02
11712;BME280;5912;51.034;6.984;2022-12-18T13:24:24;101051.66;;;-2.06;63.31
11712;BME280;5912;51.034;6.984;2022-12-18T13:26:53;101057.50;;;-2.15;62.16
11712;BME280;5912;51.034;6.984;2022-12-18T13:30:00;101054.50;;;-2.32;61.81
11712;BME280;5912;51.034;6.984;2022-12-18T13:33:05;101057.25;;;-2.23;61.92
11712;BME280;5912;51.034;6.984;2022-12-18T13:35:37;101063.91;;;-2.20;62.64
11712;BME280;5912;51.034;6.984;2022-12-18T13:41:28;101029.47;;;-2.30;62.78
11712;BME280;5912;51.034;6.984;2022-12-18T13:43:56;101038.75;;;-2.51;62.57
11712;BME280;5912;51.034;6.984;2022-12-18T13:46:45;101036.13;;;-2.39;62.66
11712;BME280;5912;51.034;6.984;2022-12-18T13:49:41;101035.16;;;-2.38;62.93
11712;BME280;5912;51.034;6.984;2022-12-18T13:52:28;100985.16;;;-2.81;62.53
11712;BME280;5912;51.034;6.984;2022-12-18T13:55:05;101022.84;;;-2.45;63.44
11712;BME280;5912;51.034;6.984;2022-12-18T14:01:01;101012.47;;;-2.44;63.57
11712;BME280;5912;51.034;6.984;2022-12-18T14:03:41;100972.19;;;-2.79;62.93
11712;BME280;5912;51.034;6.984;2022-12-18T14:06:18;101001.19;;;-2.54;64.48
11712;BME280;5912;51.034;6.984;2022-12-18T14:08:52;100998.81;;;-2.57;63.61
11712;BME280;5912;51.034;6.984;2022-12-18T14:22:14;100991.34;;;-2.60;63.20
11712;BME280;5912;51.034;6.984;2022-12-18T14:27:41;100981.38;;;-2.64;64.15
11712;BME280;5912;51.034;6.984;2022-12-18T14:30:40;100972.34;;;-2.70;65.35
11712;BME280;5912;51.034;6.984;2022-12-18T14:33:27;100971.44;;;-2.69;64.74
11712;BME280;5912;51.034;6.984;2022-12-18T14:36:06;100968.63;;;-2.66;65.44
11712;BME280;5912;51.034;6.984;2022-12-18T14:38:39;100964.00;;;-2.73;65.12
11712;BME280;5912;51.034;6.984;2022-12-18T14:41:10;100931.81;;;-2.90;66.00
11712;BME280;5912;51.034;6.984;2022-12-18T14:43:38;100964.81;;;-2.84;64.93
11712;BME280;5912;51.034;6.984;2022-12-18T14:46:06;100970.56;;;-2.80;64.88
11712;BME280;5912;51.034;6.984;2022-12-18T14:48:50;100967.88;;;-2.79;65.67
11712;BME280;5912;51.034;6.984;2022-12-18T14:51:17;100971.69;;;-2.84;65.78
11712;BME280;5912;51.034;6.984;2022-12-18T14:53:56;100978.09;;;-2.90;65.86
11712;BME280;5912;51.034;6.984;2022-12-18T14:56:31;100959.38;;;-2.92;64.80
11712;BME280;5912;51.034;6.984;2022-12-18T14:59:02;100950.09;;;-3.06;64.84
11712;BME280;5912;51.034;6.984;2022-12-18T15:01:34;100954.97;;;-2.90;65.89
11712;BME280;5912;51.034;6.984;2022-12-18T15:04:01;100954.56;;;-2.96;64.93
11712;BME280;5912;51.034;6.984;2022-12-18T15:06:31;100953.53;;;-2.94;65.05
11712;BME280;5912;51.034;6.984;2022-12-18T15:08:59;100950.03;;;-2.93;65.77
11712;BME280;5912;51.034;6.984;2022-12-18T15:11:32;100951.44;;;-2.89;65.81
11712;BME280;5912;51.034;6.984;2022-12-18T15:13:58;100938.22;;;-2.95;65.49
11712;BME280;5912;51.034;6.984;2022-12-18T15:16:24;100944.28;;;-2.96;66.05
11712;BME280;5912;51.034;6.984;2022-12-18T15:18:50;100936.69;;;-2.98;66.07
11712;BME280;5912;51.034;6.984;2022-12-18T15:21:19;100944.13;;;-3.06;65.80
11712;BME280;5912;51.034;6.984;2022-12-18T15:23:48;100935.13;;;-3.01;66.25
11712;BME280;5912;51.034;6.984;2022-12-18T15:26:16;100937.72;;;-3.01;65.69
11712;BME280;5912;51.034;6.984;2022-12-18T15:28:52;100943.06;;;-3.04;65.89
11712;BME280;5912;51.034;6.984;2022-12-18T15:31:33;100941.34;;;-3.03;65.93
11712;BME280;5912;51.034;6.984;2022-12-18T15:34:13;100932.00;;;-3.04;66.24
11712;BME280;5912;51.034;6.984;2022-12-18T15:36:39;100939.47;;;-3.01;66.52
11712;BME280;5912;51.034;6.984;2022-12-18T15:39:05;100932.00;;;-3.04;66.31
11712;BME280;5912;51.034;6.984;2022-12-18T15:41:32;100930.06;;;-3.13;67.06
11712;BME280;5912;51.034;6.984;2022-12-18T15:44:01;100929.72;;;-3.09;67.36
11712;BME280;5912;51.034;6.984;2022-12-18T15:46:27;100936.97;;;-3.14;66.86
11712;BME280;5912;51.034;6.984;2022-12-18T15:48:56;100931.00;;;-3.14;66.90
11712;BME280;5912;51.034;6.984;2022-12-18T15:51:31;100912.22;;;-3.27;67.20
11712;BME280;5912;51.034;6.984;2022-12-18T15:54:00;100931.59;;;-3.11;67.22
11712;BME280;5912;51.034;6.984;2022-12-18T15:56:51;100930.06;;;-3.13;67.28
11712;BME280;5912;51.034;6.984;2022-12-18T15:59:35;100922.78;;;-3.19;68.05
11712;BME280;5912;51.034;6.984;2022-12-18T16:02:00;100931.88;;;-3.26;68.33
11712;BME280;5912;51.034;6.984;2022-12-18T16:04:25;100926.28;;;-3.20;69.04
11712;BME280;5912;51.034;6.984;2022-12-18T16:06:51;100930.38;;;-3.18;68.53
11712;BME280;5912;51.034;6.984;2022-12-18T16:09:19;100920.75;;;-3.27;69.20
11712;BME280;5912;51.034;6.984;2022-12-18T16:11:44;100931.88;;;-3.26;70.23
11712;BME280;5912;51.034;6.984;2022-12-18T16:14:28;100934.13;;;-3.22;70.20
11712;BME280;5912;51.034;6.984;2022-12-18T16:17:00;100928.16;;;-3.22;70.03
11712;BME280;5912;51.034;6.984;2022-12-18T16:19:26;100928.19;;;-3.35;70.64
11712;BME280;5912;51.034;6.984;2022-12-18T16:21:54;100908.75;;;-3.39;71.03
11712;BME280;5912;51.034;6.984;2022-12-18T16:24:23;100914.00;;;-3.40;71.25
11712;BME280;5912;51.034;6.984;2022-12-18T16:26:50;100918.75;;;-3.34;72.42
11712;BME280;5912;51.034;6.984;2022-12-18T16:29:20;100938.34;;;-3.33;72.01
11712;BME280;5912;51.034;6.984;2022-12-18T16:31:50;100930.03;;;-3.37;71.87
11712;BME280;5912;51.034;6.984;2022-12-18T16:34:25;100921.78;;;-3.29;72.36
11712;BME280;5912;51.034;6.984;2022-12-18T16:36:53;100940.44;;;-3.38;72.68
11712;BME280;5912;51.034;6.984;2022-12-18T16:39:19;100925.94;;;-3.39;73.08
11712;BME280;5912;51.034;6.984;2022-12-18T16:41:45;100932.22;;;-3.43;73.14
11712;BME280;5912;51.034;6.984;2022-12-18T16:44:10;100918.19;;;-3.50;72.97
11712;BME280;5912;51.034;6.984;2022-12-18T16:46:36;100915.28;;;-3.46;73.96
11712;BME280;5912;51.034;6.984;2022-12-18T16:49:02;100914.06;;;-3.53;73.96
11712;BME280;5912;51.034;6.984;2022-12-18T16:51:28;100917.56;;;-3.54;74.00
11712;BME280;5912;51.034;6.984;2022-12-18T16:53:54;100900.34;;;-3.64;74.02
11712;BME280;5912;51.034;6.984;2022-12-18T16:56:20;100923.41;;;-3.52;74.07
11712;BME280;5912;51.034;6.984;2022-12-18T16:58:56;100909.91;;;-3.43;73.81
11712;BME280;5912;51.034;6.984;2022-12-18T17:01:23;100903.88;;;-3.54;74.48
11712;BME280;5912;51.034;6.984;2022-12-18T17:06:18;100845.25;;;-3.96;74.08
11712;BME280;5912;51.034;6.984;2022-12-18T17:08:44;100901.03;;;-3.62;74.70
11712;BME280;5912;51.034;6.984;2022-12-18T17:11:09;100904.44;;;-3.62;74.57
11712;BME280;5912;51.034;6.984;2022-12-18T17:13:34;100894.16;;;-3.62;74.30
11712;BME280;5912;51.034;6.984;2022-12-18T17:16:04;100883.63;;;-3.82;75.01
11712;BME280;5912;51.034;6.984;2022-12-18T17:18:31;100914.28;;;-3.56;74.94
11712;BME280;5912;51.034;6.984;2022-12-18T17:21:04;100939.53;;;-3.50;74.13
11712;BME280;5912;51.034;6.984;2022-12-18T17:23:31;100936.56;;;-3.56;74.43
11712;BME280;5912;51.034;6.984;2022-12-18T17:25:57;100935.03;;;-3.59;74.63
11712;BME280;5912;51.034;6.984;2022-12-18T17:28:23;100932.56;;;-3.60;74.09
11712;BME280;5912;51.034;6.984;2022-12-18T17:30:50;100933.19;;;-3.57;74.45
11712;BME280;5912;51.034;6.984;2022-12-18T17:33:16;100927.66;;;-3.63;74.39
11712;BME280;5912;51.034;6.984;2022-12-18T17:35:41;100915.75;;;-3.64;74.63
11712;BME280;5912;51.034;6.984;2022-12-18T17:38:07;100868.25;;;-3.95;74.61
11712;BME280;5912;51.034;6.984;2022-12-18T17:40:33;100905.06;;;-3.71;74.88
11712;BME280;5912;51.034;6.984;2022-12-18T17:42:59;100917.19;;;-3.73;75.72
11712;BME280;5912;51.034;6.984;2022-12-18T17:45:24;100895.09;;;-3.75;75.44
11712;BME280;5912;51.034;6.984;2022-12-18T17:47:49;100885.50;;;-3.97;76.53
11712;BME280;5912;51.034;6.984;2022-12-18T17:50:15;100900.88;;;-3.84;76.11
11712;BME280;5912;51.034;6.984;2022-12-18T17:52:40;100887.22;;;-3.85;76.32
11712;BME280;5912;51.034;6.984;2022-12-18T17:55:06;100901.38;;;-3.79;76.36
11712;BME280;5912;51.034;6.984;2022-12-18T17:57:31;100904.59;;;-3.88;76.22
11712;BME280;5912;51.034;6.984;2022-12-18T17:59:57;100912.88;;;-3.85;76.13
11712;BME280;5912;51.034;6.984;2022-12-18T18:02:22;100919.16;;;-3.76;76.34
11712;BME280;5912;51.034;6.984;2022-12-18T18:04:47;100913.59;;;-3.83;75.79
11712;BME280;5912;51.034;6.984;2022-12-18T18:07:12;100925.22;;;-3.77;75.86
11712;BME280;5912;51.034;6.984;2022-12-18T18:09:38;100916.06;;;-3.81;75.68
11712;BME280;5912;51.034;6.984;2022-12-18T18:12:03;100911.66;;;-3.79;75.91
11712;BME280;5912;51.034;6.984;2022-12-18T18:14:47;100925.81;;;-3.74;75.92
11712;BME280;5912;51.034;6.984;2022-12-18T18:17:12;100923.84;;;-3.70;75.73
11712;BME280;5912;51.034;6.984;2022-12-18T18:19:38;100925.91;;;-3.75;76.07
11712;BME280;5912;51.034;6.984;2022-12-18T18:22:03;100911.22;;;-3.73;76.31
11712;BME280;5912;51.034;6.984;2022-12-18T18:24:29;100921.31;;;-3.83;76.18
11712;BME280;5912;51.034;6.984;2022-12-18T18:26:54;100924.28;;;-3.76;75.49
11712;BME280;5912;51.034;6.984;2022-12-18T18:29:22;100932.72;;;-3.74;75.89
11712;BME280;5912;51.034;6.984;2022-12-18T18:31:48;100925.81;;;-3.86;76.09